Time;durP1;ratioP1;P1;durP2;ratioP2;P2;SDS_P1;SDS_P2;PMS_P1;PMS_P2;Temp;Humidity;BMP_temperature;BMP_pressure;BME280_temperature;BME280_humidity;BME280_pressure;Samples;Min_cycle;Max_cycle;Signal;HPM_P1;HPM_P2
2021/06/13 00:01:34;;;;;;;;;;;14.00;69.00;;;;;;5073824;28;19958;-64
2021/06/13 00:04:00;;;;;;;;;;;14.00;69.00;;;;;;5091452;28;19948;-64
2021/06/13 00:06:26;;;;;;;;;;;14.00;69.20;;;;;;5092046;28;19916;-64
2021/06/13 00:08:51;;;;;;;;;;;14.00;69.20;;;;;;5090863;28;20419;-64
2021/06/13 00:11:17;;;;;;;;;;;13.90;69.20;;;;;;5091479;28;19994;-64
2021/06/13 00:13:43;;;;;;;;;;;13.90;69.20;;;;;;5090115;28;19920;-64
2021/06/13 00:16:09;;;;;;;;;;;13.80;69.30;;;;;;5090489;28;19923;-63
2021/06/13 00:18:35;;;;;;;;;;;13.70;69.40;;;;;;5091372;28;19916;-63
2021/06/13 00:21:01;;;;;;;;;;;13.60;69.40;;;;;;5091535;28;19935;-64
2021/06/13 00:23:26;;;;;;;;;;;13.50;69.50;;;;;;5089723;28;20296;-63
2021/06/13 00:25:52;;;;;;;;;;;13.40;69.70;;;;;;5090586;28;20334;-64
2021/06/13 00:28:18;;;;;;;;;;;13.30;70.00;;;;;;5091849;28;19923;-64
2021/06/13 00:30:43;;;;;;;;;;;13.30;70.30;;;;;;5089869;28;20003;-63
2021/06/13 00:33:09;;;;;;;;;;;13.40;70.60;;;;;;5091227;28;19935;-63
2021/06/13 00:35:35;;;;;;;;;;;13.40;70.60;;;;;;5091211;28;19920;-63
2021/06/13 00:38:01;;;;;;;;;;;13.50;70.60;;;;;;5090365;28;19931;-64
2021/06/13 00:40:27;;;;;;;;;;;13.50;70.60;;;;;;5057054;28;19922;-63
2021/06/13 00:42:54;;;;;;;;;;;13.50;70.30;;;;;;5072867;28;19916;-63
2021/06/13 00:45:20;;;;;;;;;;;13.50;70.20;;;;;;5091010;28;19965;-64
2021/06/13 00:47:46;;;;;;;;;;;13.40;70.20;;;;;;5090250;28;20326;-63
2021/06/13 00:50:13;;;;;;;;;;;13.30;70.20;;;;;;5091139;28;19916;-63
2021/06/13 00:52:39;;;;;;;;;;;13.30;70.40;;;;;;5075279;28;19924;-63
2021/06/13 00:55:05;;;;;;;;;;;13.20;70.50;;;;;;5093656;28;19989;-63
2021/06/13 00:57:31;;;;;;;;;;;13.10;70.50;;;;;;5094131;28;19923;-63
2021/06/13 00:59:56;;;;;;;;;;;13.10;70.60;;;;;;5095460;28;20028;-63
2021/06/13 01:02:22;;;;;;;;;;;13.00;70.80;;;;;;5059986;28;19984;-63
2021/06/13 01:04:48;;;;;;;;;;;13.00;70.70;;;;;;5093735;28;20403;-63
2021/06/13 01:07:19;;;;;;;;;;;12.90;70.80;;;;;;5093915;28;20328;-63
2021/06/13 01:09:49;;;;;;;;;;;12.90;71.00;;;;;;5093540;28;19916;-63
2021/06/13 01:12:26;;;;;;;;;;;12.80;70.90;;;;;;5093700;28;19959;-63
2021/06/13 01:15:06;;;;;;;;;;;12.80;71.10;;;;;;5093261;28;19916;-63
2021/06/13 01:17:40;;;;;;;;;;;12.70;71.10;;;;;;5095175;28;19965;-63
2021/06/13 01:20:20;;;;;;;;;;;12.60;71.70;;;;;;5093313;28;19924;-63
2021/06/13 01:23:05;;;;;;;;;;;12.60;71.30;;;;;;5093082;28;20410;-63
2021/06/13 01:25:34;;;;;;;;;;;12.60;71.40;;;;;;5076116;28;19920;-63
2021/06/13 01:28:26;;;;;;;;;;;12.50;71.50;;;;;;5093363;28;19956;-63
2021/06/13 01:30:53;;;;;;;;;;;12.50;71.70;;;;;;5073259;28;19917;-63
2021/06/13 01:33:20;;;;;;;;;;;12.50;71.70;;;;;;5072617;28;19934;-63
2021/06/13 01:35:47;;;;;;;;;;;12.40;71.70;;;;;;5056597;28;19966;-63
2021/06/13 01:38:15;;;;;;;;;;;12.40;71.80;;;;;;5089684;28;19995;-63
2021/06/13 01:40:43;;;;;;;;;;;12.40;72.00;;;;;;5074383;28;20391;-63
2021/06/13 01:43:09;;;;;;;;;;;12.30;72.00;;;;;;5056171;28;19949;-63
2021/06/13 01:45:37;;;;;;;;;;;12.30;72.20;;;;;;5072908;28;19916;-63
2021/06/13 01:48:11;;;;;;;;;;;12.30;72.20;;;;;;5056814;28;19917;-63
2021/06/13 01:50:39;;;;;;;;;;;12.20;72.10;;;;;;5056109;28;19973;-63
2021/06/13 01:53:12;;;;;;;;;;;12.20;72.30;;;;;;5056039;28;20022;-63
2021/06/13 01:55:39;;;;;;;;;;;12.20;72.50;;;;;;5073793;28;19916;-64
2021/06/13 01:58:06;;;;;;;;;;;12.20;72.60;;;;;;5056158;28;19916;-63
2021/06/13 02:00:45;;;;;;;;;;;12.10;72.70;;;;;;5072051;28;20295;-63
2021/06/13 02:03:17;;;;;;;;;;;12.00;72.70;;;;;;5074113;28;20013;-63
2021/06/13 02:05:55;;;;;;;;;;;12.10;72.90;;;;;;5074819;28;20411;-64
2021/06/13 02:08:22;;;;;;;;;;;12.20;73.30;;;;;;5074985;28;19927;-63
2021/06/13 02:10:57;;;;;;;;;;;12.30;73.30;;;;;;5073391;28;19924;-63
2021/06/13 02:13:23;;;;;;;;;;;12.40;73.40;;;;;;5073801;28;19923;-64
2021/06/13 02:15:54;;;;;;;;;;;12.50;73.30;;;;;;5074227;28;19916;-64
2021/06/13 02:18:21;;;;;;;;;;;12.60;73.20;;;;;;5073746;28;20379;-63
2021/06/13 02:20:48;;;;;;;;;;;12.70;72.90;;;;;;5074455;28;19917;-63
2021/06/13 02:23:14;;;;;;;;;;;12.80;72.90;;;;;;5057705;28;19923;-64
2021/06/13 02:25:40;;;;;;;;;;;12.80;72.80;;;;;;5076528;28;19924;-64
2021/06/13 02:28:10;;;;;;;;;;;12.90;72.80;;;;;;5073148;28;19959;-64
2021/06/13 02:30:41;;;;;;;;;;;12.90;72.60;;;;;;5057009;28;20316;-63
2021/06/13 02:33:10;;;;;;;;;;;13.00;72.60;;;;;;5072780;28;19921;-63
2021/06/13 02:35:38;;;;;;;;;;;13.10;72.50;;;;;;5055431;28;20003;-64
2021/06/13 02:38:05;;;;;;;;;;;13.10;72.30;;;;;;5072053;28;19916;-64
2021/06/13 02:40:31;;;;;;;;;;;13.10;72.30;;;;;;5071668;28;19917;-63
2021/06/13 02:43:02;;;;;;;;;;;13.10;72.20;;;;;;5072476;28;20045;-63
2021/06/13 02:45:32;;;;;;;;;;;13.10;72.20;;;;;;5071787;28;19928;-63
2021/06/13 02:47:58;;;;;;;;;;;13.20;72.30;;;;;;5072382;28;19916;-63
2021/06/13 02:50:28;;;;;;;;;;;13.20;72.10;;;;;;5055846;28;19999;-63
2021/06/13 02:52:57;;;;;;;;;;;13.20;72.00;;;;;;5071007;28;20380;-63
2021/06/13 02:55:27;;;;;;;;;;;13.20;72.00;;;;;;5072967;28;19925;-63
2021/06/13 02:58:03;;;;;;;;;;;13.10;72.20;;;;;;5072884;28;20269;-63
2021/06/13 03:00:30;;;;;;;;;;;13.10;72.30;;;;;;5055253;28;19917;-64
2021/06/13 03:02:57;;;;;;;;;;;13.10;72.40;;;;;;5072612;28;20007;-63
2021/06/13 03:05:25;;;;;;;;;;;13.10;72.50;;;;;;5071209;28;20004;-64
2021/06/13 03:07:53;;;;;;;;;;;13.20;72.60;;;;;;5071666;28;19921;-63
2021/06/13 03:10:20;;;;;;;;;;;13.20;72.50;;;;;;5071152;28;20348;-64
2021/06/13 03:12:47;;;;;;;;;;;13.20;72.50;;;;;;5072533;28;19921;-63
2021/06/13 03:15:13;;;;;;;;;;;13.20;72.50;;;;;;5070585;28;20011;-63
2021/06/13 03:17:42;;;;;;;;;;;13.20;72.60;;;;;;5071638;28;19916;-64
2021/06/13 03:20:09;;;;;;;;;;;13.20;72.50;;;;;;5072649;28;19923;-64
2021/06/13 03:22:34;;;;;;;;;;;13.20;72.50;;;;;;5071987;28;19923;-63
2021/06/13 03:25:02;;;;;;;;;;;13.30;72.60;;;;;;5072171;28;20103;-64
2021/06/13 03:27:29;;;;;;;;;;;13.30;72.50;;;;;;5055404;28;19917;-64
2021/06/13 03:29:57;;;;;;;;;;;13.30;72.50;;;;;;5072826;28;19970;-64
2021/06/13 03:32:23;;;;;;;;;;;13.30;72.60;;;;;;5055696;28;19924;-64
2021/06/13 03:34:49;;;;;;;;;;;13.40;72.60;;;;;;5072891;28;19923;-64
2021/06/13 03:37:16;;;;;;;;;;;13.40;72.50;;;;;;5056304;28;20282;-63
2021/06/13 03:39:43;;;;;;;;;;;13.40;72.50;;;;;;5072215;28;19921;-67
2021/06/13 03:42:10;;;;;;;;;;;13.50;72.50;;;;;;5071891;28;19924;-64
2021/06/13 03:44:36;;;;;;;;;;;13.40;72.40;;;;;;5072041;28;19916;-63
2021/06/13 03:47:02;;;;;;;;;;;13.40;72.30;;;;;;5070159;28;19921;-64
2021/06/13 03:49:28;;;;;;;;;;;13.50;72.30;;;;;;5072057;28;19916;-63
2021/06/13 03:51:53;;;;;;;;;;;13.50;72.30;;;;;;5054152;28;19921;-64
2021/06/13 03:54:19;;;;;;;;;;;13.50;72.30;;;;;;5071376;28;20351;-63
2021/06/13 03:56:46;;;;;;;;;;;13.50;72.30;;;;;;5070483;28;19962;-63
2021/06/13 03:59:13;;;;;;;;;;;13.50;72.30;;;;;;5071567;28;19962;-63
2021/06/13 04:01:39;;;;;;;;;;;13.60;72.20;;;;;;5072416;28;20395;-63
2021/06/13 04:04:06;;;;;;;;;;;13.60;72.10;;;;;;5053833;28;19916;-63
2021/06/13 04:06:32;;;;;;;;;;;13.60;72.00;;;;;;5053652;28;19916;-63
2021/06/13 04:08:58;;;;;;;;;;;13.60;71.90;;;;;;5070808;28;19923;-63
2021/06/13 04:11:24;;;;;;;;;;;13.60;72.00;;;;;;5070663;28;19970;-64
2021/06/13 04:13:50;;;;;;;;;;;13.60;71.80;;;;;;5071273;28;19913;-63
2021/06/13 04:16:18;;;;;;;;;;;13.60;71.90;;;;;;5070695;28;19942;-63
2021/06/13 04:18:44;;;;;;;;;;;13.70;72.00;;;;;;5070304;28;20373;-63
2021/06/13 04:21:10;;;;;;;;;;;13.70;71.80;;;;;;5071916;28;19923;-63
2021/06/13 04:23:37;;;;;;;;;;;13.70;71.70;;;;;;5070278;28;20335;-63
2021/06/13 04:26:03;;;;;;;;;;;13.80;71.70;;;;;;5052987;28;19916;-63
2021/06/13 04:28:29;;;;;;;;;;;13.70;71.60;;;;;;5071297;28;19923;-63
2021/06/13 04:31:02;;;;;;;;;;;13.80;71.60;;;;;;5053349;28;19964;-63
2021/06/13 04:33:31;;;;;;;;;;;13.80;71.70;;;;;;5071451;28;19916;-64
2021/06/13 04:35:56;;;;;;;;;;;13.90;71.60;;;;;;5053668;28;19912;-63
2021/06/13 04:38:22;;;;;;;;;;;14.00;71.40;;;;;;5070095;28;19920;-63
2021/06/13 04:40:47;;;;;;;;;;;14.00;71.30;;;;;;5053714;28;19916;-63
2021/06/13 04:43:13;;;;;;;;;;;14.10;71.30;;;;;;5070833;28;20467;-63
2021/06/13 04:45:39;;;;;;;;;;;14.10;71.20;;;;;;5070480;28;20004;-63
2021/06/13 04:48:06;;;;;;;;;;;14.10;71.00;;;;;;5070518;28;19916;-63
2021/06/13 04:50:35;;;;;;;;;;;14.10;70.90;;;;;;5073559;28;19928;-64
2021/06/13 04:53:02;;;;;;;;;;;14.10;70.70;;;;;;5055123;28;20338;-63
2021/06/13 04:55:35;;;;;;;;;;;14.10;70.60;;;;;;5070281;28;19939;-64
2021/06/13 04:58:22;;;;;;;;;;;14.20;70.70;;;;;;5053611;28;20409;-63
2021/06/13 05:00:48;;;;;;;;;;;14.20;70.80;;;;;;5071009;28;19962;-63
2021/06/13 05:03:13;;;;;;;;;;;14.20;70.70;;;;;;5069873;28;20279;-64
2021/06/13 05:05:39;;;;;;;;;;;14.30;70.50;;;;;;5069622;28;19924;-64
2021/06/13 05:08:05;;;;;;;;;;;14.40;70.70;;;;;;5053261;28;19916;-64
2021/06/13 05:10:30;;;;;;;;;;;14.50;70.90;;;;;;5069827;28;19920;-64
2021/06/13 05:12:56;;;;;;;;;;;14.70;70.30;;;;;;5068961;28;19921;-63
2021/06/13 05:15:22;;;;;;;;;;;14.70;69.90;;;;;;5071112;28;19939;-62
2021/06/13 05:17:48;;;;;;;;;;;14.70;69.50;;;;;;5071268;28;19917;-63
2021/06/13 05:20:14;;;;;;;;;;;14.70;69.30;;;;;;5069291;28;19920;-63
2021/06/13 05:22:53;;;;;;;;;;;14.60;69.30;;;;;;5069521;28;19943;-64
2021/06/13 05:25:18;;;;;;;;;;;14.70;69.90;;;;;;5069433;28;19991;-63
2021/06/13 05:27:44;;;;;;;;;;;14.80;70.00;;;;;;5069640;28;19940;-63
2021/06/13 05:30:10;;;;;;;;;;;15.00;69.70;;;;;;5068981;28;19942;-63
2021/06/13 05:32:36;;;;;;;;;;;15.00;69.20;;;;;;5070833;28;19946;-64
2021/06/13 05:35:01;;;;;;;;;;;15.00;68.90;;;;;;5070867;28;20431;-63
2021/06/13 05:37:27;;;;;;;;;;;15.00;68.70;;;;;;5069167;28;19917;-63
2021/06/13 05:39:52;;;;;;;;;;;14.90;68.80;;;;;;5074554;28;19924;-63
2021/06/13 05:42:18;;;;;;;;;;;14.90;68.90;;;;;;5074824;28;19917;-63
2021/06/13 05:44:44;;;;;;;;;;;14.90;68.70;;;;;;5072537;28;20018;-64
2021/06/13 05:47:09;;;;;;;;;;;14.80;68.70;;;;;;5073146;28;20001;-64
2021/06/13 05:49:35;;;;;;;;;;;14.80;68.80;;;;;;5072752;28;20017;-63
2021/06/13 05:52:00;;;;;;;;;;;14.70;68.90;;;;;;5074339;28;19920;-64
2021/06/13 05:54:26;;;;;;;;;;;14.70;69.00;;;;;;5072601;28;19920;-63
2021/06/13 05:56:51;;;;;;;;;;;14.70;69.10;;;;;;5074030;28;19924;-64
2021/06/13 05:59:17;;;;;;;;;;;14.70;69.10;;;;;;5056464;28;20522;-64
2021/06/13 06:01:43;;;;;;;;;;;14.70;69.00;;;;;;5074091;28;19928;-64
2021/06/13 06:04:08;;;;;;;;;;;14.80;69.10;;;;;;5072145;28;19916;-63
2021/06/13 06:06:34;;;;;;;;;;;14.80;69.40;;;;;;5056225;28;19920;-66
2021/06/13 06:09:00;;;;;;;;;;;14.90;68.90;;;;;;5074159;28;19916;-64
2021/06/13 06:11:25;;;;;;;;;;;14.90;68.70;;;;;;5055414;28;20011;-64
2021/06/13 06:13:53;;;;;;;;;;;14.90;68.70;;;;;;5073538;28;20376;-64
2021/06/13 06:16:23;;;;;;;;;;;15.00;68.90;;;;;;5072148;28;20012;-63
2021/06/13 06:18:49;;;;;;;;;;;15.20;69.30;;;;;;5073838;28;19920;-65
2021/06/13 06:21:14;;;;;;;;;;;16.20;73.40;;;;;;5071849;28;20269;-64
2021/06/13 06:23:40;;;;;;;;;;;16.90;70.90;;;;;;5072106;28;19916;-64
2021/06/13 06:26:05;;;;;;;;;;;17.20;67.60;;;;;;5072266;28;20050;-64
2021/06/13 06:28:31;;;;;;;;;;;17.10;66.40;;;;;;5071834;28;20292;-64
2021/06/13 06:30:57;;;;;;;;;;;17.00;66.00;;;;;;5072076;28;19916;-64
2021/06/13 06:33:30;;;;;;;;;;;17.10;65.90;;;;;;5073069;28;19920;-63
2021/06/13 06:35:55;;;;;;;;;;;17.10;65.90;;;;;;5088870;28;19944;-64
2021/06/13 06:38:21;;;;;;;;;;;17.30;65.90;;;;;;5055389;28;19916;-64
2021/06/13 06:40:46;;;;;;;;;;;17.50;65.70;;;;;;5071693;28;19917;-64
2021/06/13 06:43:12;;;;;;;;;;;17.50;64.10;;;;;;5071533;28;19916;-64
2021/06/13 06:45:38;;;;;;;;;;;17.30;63.60;;;;;;5055252;28;20442;-64
2021/06/13 06:48:04;;;;;;;;;;;17.10;63.20;;;;;;5072649;28;19920;-64
2021/06/13 06:50:30;;;;;;;;;;;17.10;63.80;;;;;;5072621;28;20402;-64
2021/06/13 06:52:55;;;;;;;;;;;17.40;65.60;;;;;;5072750;28;19920;-64
2021/06/13 06:55:21;;;;;;;;;;;19.00;70.20;;;;;;5071282;28;20411;-66
2021/06/13 06:57:48;;;;;;;;;;;21.60;71.30;;;;;;5071630;28;19923;-65
2021/06/13 07:00:14;;;;;;;;;;;23.30;63.90;;;;;;5070472;28;19920;-68
2021/06/13 07:02:40;;;;;;;;;;;22.90;56.20;;;;;;5054488;28;19921;-64
2021/06/13 07:05:06;;;;;;;;;;;21.90;54.50;;;;;;5070415;28;20199;-65
2021/06/13 07:07:32;;;;;;;;;;;21.20;55.00;;;;;;5072344;28;19978;-64
2021/06/13 07:09:57;;;;;;;;;;;20.90;55.80;;;;;;5080158;28;19917;-64
2021/06/13 07:12:25;;;;;;;;;;;20.70;55.40;;;;;;5087359;28;20296;-64
2021/06/13 07:14:51;;;;;;;;;;;20.10;53.80;;;;;;5080198;28;19927;-64
2021/06/13 07:17:17;;;;;;;;;;;19.40;53.80;;;;;;5080773;28;19916;-64
2021/06/13 07:19:42;;;;;;;;;;;18.60;54.90;;;;;;5081040;28;20072;-63
2021/06/13 07:22:08;;;;;;;;;;;18.40;56.30;;;;;;5079765;28;20058;-64
2021/06/13 07:24:33;;;;;;;;;;;18.30;57.30;;;;;;5080532;28;19916;-64
2021/06/13 07:26:59;;;;;;;;;;;18.50;57.90;;;;;;5071139;28;20405;-64
2021/06/13 07:29:25;;;;;;;;;;;18.70;57.40;;;;;;5071934;28;19927;-65
2021/06/13 07:31:50;;;;;;;;;;;18.90;57.30;;;;;;5072239;28;19925;-64
2021/06/13 07:34:16;;;;;;;;;;;18.80;55.80;;;;;;5069881;28;19959;-64
2021/06/13 07:36:42;;;;;;;;;;;18.50;55.80;;;;;;5072245;28;19931;-64
2021/06/13 07:39:08;;;;;;;;;;;18.20;55.80;;;;;;5091848;28;19916;-64
2021/06/13 07:41:34;;;;;;;;;;;17.80;56.40;;;;;;5090519;28;20285;-62
2021/06/13 07:43:59;;;;;;;;;;;17.50;56.60;;;;;;5091962;28;19912;-63
2021/06/13 07:46:25;;;;;;;;;;;17.30;58.10;;;;;;5091413;28;20334;-63
2021/06/13 07:48:50;;;;;;;;;;;17.20;58.10;;;;;;5091938;28;19996;-63
2021/06/13 07:51:16;;;;;;;;;;;17.20;58.50;;;;;;5073660;28;19963;-63
2021/06/13 07:53:45;;;;;;;;;;;17.40;58.70;;;;;;5090812;28;19928;-63
2021/06/13 07:56:11;;;;;;;;;;;17.50;58.50;;;;;;5090196;28;19956;-62
2021/06/13 07:58:37;;;;;;;;;;;17.70;59.30;;;;;;5091180;28;19955;-64
2021/06/13 08:01:02;;;;;;;;;;;18.10;59.60;;;;;;5090534;28;19959;-63
2021/06/13 08:03:28;;;;;;;;;;;18.40;58.90;;;;;;5090226;28;20085;-63
2021/06/13 08:05:53;;;;;;;;;;;18.60;57.50;;;;;;5089436;28;19966;-63
2021/06/13 08:08:19;;;;;;;;;;;18.70;57.60;;;;;;5087586;28;20377;-63
2021/06/13 08:10:44;;;;;;;;;;;19.00;57.90;;;;;;5091694;28;20392;-63
2021/06/13 08:13:10;;;;;;;;;;;19.80;60.20;;;;;;5090596;28;19924;-63
2021/06/13 08:15:36;;;;;;;;;;;20.90;58.70;;;;;;5091580;28;19916;-63
2021/06/13 08:18:01;;;;;;;;;;;21.00;54.80;;;;;;5090092;28;20368;-64
2021/06/13 08:20:27;;;;;;;;;;;20.70;54.30;;;;;;5088397;28;19928;-63
2021/06/13 08:22:53;;;;;;;;;;;20.50;54.50;;;;;;5077929;28;19916;-63
2021/06/13 08:25:19;;;;;;;;;;;20.30;54.10;;;;;;5078542;28;19917;-63
2021/06/13 08:27:45;;;;;;;;;;;20.10;53.90;;;;;;5058559;28;19917;-65
2021/06/13 08:30:12;;;;;;;;;;;20.00;54.00;;;;;;5082155;28;20001;-65
2021/06/13 08:32:38;;;;;;;;;;;20.50;55.40;;;;;;5078563;28;19935;-66
2021/06/13 08:35:04;;;;;;;;;;;22.10;57.40;;;;;;5080687;28;19924;-65
2021/06/13 08:37:30;;;;;;;;;;;23.10;53.00;;;;;;5067790;28;20283;-64
2021/06/13 08:39:56;;;;;;;;;;;22.90;50.00;;;;;;5079073;28;20007;-65
2021/06/13 08:42:21;;;;;;;;;;;22.10;48.50;;;;;;5060834;28;19916;-65
2021/06/13 08:44:47;;;;;;;;;;;21.20;49.10;;;;;;5078860;28;19921;-64
2021/06/13 08:47:18;;;;;;;;;;;20.80;51.00;;;;;;5080873;28;19927;-65
2021/06/13 08:49:44;;;;;;;;;;;22.00;55.40;;;;;;5079520;28;19928;-64
2021/06/13 08:52:10;;;;;;;;;;;23.30;51.70;;;;;;5060542;28;19935;-66
2021/06/13 08:54:36;;;;;;;;;;;24.90;51.70;;;;;;5079212;28;19919;-65
2021/06/13 08:57:02;;;;;;;;;;;26.80;50.10;;;;;;5079509;28;19920;-66
2021/06/13 08:59:28;;;;;;;;;;;26.40;45.10;;;;;;5078755;28;20011;-65
2021/06/13 09:01:53;;;;;;;;;;;25.30;43.60;;;;;;5078547;28;19920;-66
2021/06/13 09:04:19;;;;;;;;;;;23.80;43.50;;;;;;5080031;28;19917;-65
2021/06/13 09:06:45;;;;;;;;;;;22.70;44.40;;;;;;5081968;28;19982;-65
2021/06/13 09:09:20;;;;;;;;;;;21.90;45.70;;;;;;5061882;28;19916;-63
2021/06/13 09:11:59;;;;;;;;;;;21.20;46.10;;;;;;5078393;28;20301;-63
2021/06/13 09:14:26;;;;;;;;;;;20.60;47.00;;;;;;5063816;28;19917;-64
2021/06/13 09:16:52;;;;;;;;;;;20.20;47.80;;;;;;5081358;28;19969;-63
2021/06/13 09:19:18;;;;;;;;;;;20.20;49.00;;;;;;5073413;28;19919;-63
2021/06/13 09:21:44;;;;;;;;;;;20.30;49.80;;;;;;5056480;28;19964;-64
2021/06/13 09:24:23;;;;;;;;;;;22.00;52.90;;;;;;5063556;28;19924;-66
2021/06/13 09:26:49;;;;;;;;;;;26.10;55.70;;;;;;5080278;28;20357;-67
2021/06/13 09:29:15;;;;;;;;;;;30.20;51.60;;;;;;5081821;28;19916;-65
2021/06/13 09:31:41;;;;;;;;;;;33.10;46.20;;;;;;5082611;28;19925;-67
2021/06/13 09:34:12;;;;;;;;;;;35.00;40.30;;;;;;5081904;28;19916;-67
2021/06/13 09:36:37;;;;;;;;;;;36.30;38.10;;;;;;5066033;28;20007;-65
2021/06/13 09:39:05;;;;;;;;;;;36.00;34.50;;;;;;5078393;28;20066;-65
2021/06/13 09:41:31;;;;;;;;;;;34.30;31.10;;;;;;5081771;28;19916;-65
2021/06/13 09:44:04;;;;;;;;;;;32.00;31.60;;;;;;5090311;28;19916;-65
2021/06/13 09:46:34;;;;;;;;;;;30.70;33.70;;;;;;5093000;28;19916;-64
2021/06/13 09:49:07;;;;;;;;;;;31.30;34.30;;;;;;5092560;28;19924;-64
2021/06/13 09:51:34;;;;;;;;;;;30.10;31.80;;;;;;5091666;28;19920;-64
2021/06/13 09:54:01;;;;;;;;;;;28.30;32.50;;;;;;5091732;28;19925;-65
2021/06/13 09:56:36;;;;;;;;;;;28.20;35.80;;;;;;5092176;28;19924;-65
2021/06/13 09:59:15;;;;;;;;;;;28.60;35.70;;;;;;5094206;28;20010;-65
2021/06/13 10:01:42;;;;;;;;;;;29.40;35.10;;;;;;5092339;28;19970;-64
2021/06/13 10:04:23;;;;;;;;;;;28.90;33.00;;;;;;5092166;28;19923;-64
2021/06/13 10:06:50;;;;;;;;;;;27.70;32.80;;;;;;5075396;28;20219;-65
2021/06/13 10:09:17;;;;;;;;;;;27.80;35.60;;;;;;5083898;28;19924;-64
2021/06/13 10:11:43;;;;;;;;;;;28.30;35.20;;;;;;5091354;28;19924;-63
2021/06/13 10:14:09;;;;;;;;;;;28.60;35.10;;;;;;5083274;28;19916;-64
2021/06/13 10:16:55;;;;;;;;;;;28.40;33.70;;;;;;5081004;28;19963;-64
2021/06/13 10:19:22;;;;;;;;;;;27.40;33.40;;;;;;5084796;28;19916;-64
2021/06/13 10:21:57;;;;;;;;;;;27.80;36.70;;;;;;5082201;28;19916;-64
2021/06/13 10:24:24;;;;;;;;;;;29.80;37.00;;;;;;5081697;28;19920;-65
2021/06/13 10:26:50;;;;;;;;;;;31.30;34.80;;;;;;5082992;28;19917;-64
2021/06/13 10:29:16;;;;;;;;;;;33.70;34.90;;;;;;5081609;28;19920;-65
2021/06/13 10:31:46;;;;;;;;;;;33.40;30.70;;;;;;5087116;28;20338;-64
2021/06/13 10:34:11;;;;;;;;;;;31.00;29.60;;;;;;5076779;28;19917;-64
2021/06/13 10:36:41;;;;;;;;;;;28.50;30.70;;;;;;5076834;28;19924;-64
2021/06/13 10:39:08;;;;;;;;;;;27.20;33.10;;;;;;5075662;28;19966;-65
2021/06/13 10:41:34;;;;;;;;;;;28.10;35.90;;;;;;5079612;28;20240;-64
2021/06/13 10:44:18;;;;;;;;;;;28.50;34.20;;;;;;5079382;28;20234;-66
2021/06/13 10:46:45;;;;;;;;;;;30.20;34.60;;;;;;5077730;28;19965;-65
2021/06/13 10:49:28;;;;;;;;;;;31.90;32.50;;;;;;5081853;28;19924;-65
2021/06/13 10:52:13;;;;;;;;;;;31.10;30.40;;;;;;5079012;28;20431;-65
2021/06/13 10:54:39;;;;;;;;;;;29.30;30.10;;;;;;5067718;28;19920;-64
2021/06/13 10:57:04;;;;;;;;;;;29.00;33.30;;;;;;5077853;28;19925;-65
2021/06/13 10:59:34;;;;;;;;;;;30.80;34.40;;;;;;5081730;28;19952;-64
2021/06/13 11:02:08;;;;;;;;;;;30.70;31.20;;;;;;5082797;28;20335;-64
2021/06/13 11:04:47;;;;;;;;;;;29.30;30.00;;;;;;5082243;28;19920;-64
2021/06/13 11:07:49;;;;;;;;;;;27.40;30.70;;;;;;5083160;28;19924;-64
2021/06/13 11:10:15;;;;;;;;;;;27.20;34.70;;;;;;5082639;28;19928;-64
2021/06/13 11:12:42;;;;;;;;;;;29.00;34.80;;;;;;5086284;28;19939;-65
2021/06/13 11:15:08;;;;;;;;;;;30.40;34.10;;;;;;5080651;28;19916;-65
2021/06/13 11:17:59;;;;;;;;;;;31.50;31.90;;;;;;5076142;28;19947;-64
2021/06/13 11:20:33;;;;;;;;;;;30.10;30.00;;;;;;5076955;28;19934;-64
2021/06/13 11:23:03;;;;;;;;;;;27.80;32.00;;;;;;5082601;28;20364;-63
2021/06/13 11:25:31;;;;;;;;;;;26.50;33.30;;;;;;5083555;28;19973;-64
2021/06/13 11:28:16;;;;;;;;;;;28.10;36.40;;;;;;5084614;28;20343;-64
2021/06/13 11:30:44;;;;;;;;;;;30.40;35.20;;;;;;5078444;28;19916;-65
2021/06/13 11:33:10;;;;;;;;;;;30.60;32.70;;;;;;5083289;28;19932;-64
2021/06/13 11:35:37;;;;;;;;;;;30.80;32.90;;;;;;5079220;28;19912;-64
2021/06/13 11:38:09;;;;;;;;;;;30.00;31.40;;;;;;5064277;28;19928;-65
2021/06/13 11:40:35;;;;;;;;;;;28.70;31.80;;;;;;5075974;28;19965;-64
2021/06/13 11:43:18;;;;;;;;;;;27.70;32.20;;;;;;5072159;28;19923;-63
2021/06/13 11:46:03;;;;;;;;;;;26.70;33.00;;;;;;5075070;28;19925;-64
2021/06/13 11:48:30;;;;;;;;;;;25.70;34.00;;;;;;5074190;28;20013;-63
2021/06/13 11:51:04;;;;;;;;;;;25.60;36.00;;;;;;5090266;28;19966;-64
2021/06/13 11:53:48;;;;;;;;;;;26.30;36.60;;;;;;5091097;28;19921;-64
2021/06/13 11:56:32;;;;;;;;;;;26.90;35.90;;;;;;5090437;28;20485;-65
2021/06/13 11:59:02;;;;;;;;;;;27.30;35.10;;;;;;5091433;28;20498;-64
2021/06/13 12:01:28;;;;;;;;;;;27.10;34.20;;;;;;5091491;28;20379;-64
2021/06/13 12:03:55;;;;;;;;;;;26.40;34.10;;;;;;5076463;28;19921;-64
2021/06/13 12:06:21;;;;;;;;;;;25.60;35.40;;;;;;5081726;28;19916;-65
2021/06/13 12:08:48;;;;;;;;;;;25.50;36.10;;;;;;5090300;28;19916;-64
2021/06/13 12:11:25;;;;;;;;;;;25.40;36.40;;;;;;5070362;28;19998;-64
2021/06/13 12:13:51;;;;;;;;;;;25.10;36.50;;;;;;5079120;28;20284;-64
2021/06/13 12:16:17;;;;;;;;;;;24.70;36.50;;;;;;5091702;28;19912;-64
2021/06/13 12:18:56;;;;;;;;;;;24.20;36.80;;;;;;5074970;28;19952;-63
2021/06/13 12:21:26;;;;;;;;;;;23.70;38.00;;;;;;5079428;28;19924;-63
2021/06/13 12:24:01;;;;;;;;;;;23.60;38.60;;;;;;5077986;28;19947;-63
2021/06/13 12:29:24;;;;;;;;;;;23.50;40.20;;;;;;5073113;28;19944;-65
2021/06/13 12:31:50;;;;;;;;;;;23.60;39.90;;;;;;5091295;28;19924;-62
2021/06/13 12:34:20;;;;;;;;;;;23.40;40.00;;;;;;5088729;28;20391;-64
2021/06/13 12:36:53;;;;;;;;;;;23.30;39.90;;;;;;5091570;28;19917;-63
2021/06/13 12:39:26;;;;;;;;;;;23.20;40.30;;;;;;5056134;28;19955;-64
2021/06/13 12:41:52;;;;;;;;;;;23.00;40.60;;;;;;5081507;28;19920;-64
2021/06/13 12:44:17;;;;;;;;;;;23.00;40.70;;;;;;5088584;28;19927;-64
2021/06/13 12:46:43;;;;;;;;;;;22.80;40.90;;;;;;5090646;28;19920;-64
2021/06/13 12:49:08;;;;;;;;;;;22.70;41.90;;;;;;5094101;28;19916;-64
2021/06/13 12:51:35;;;;;;;;;;;23.00;42.60;;;;;;5095086;28;20399;-63
2021/06/13 12:54:12;;;;;;;;;;;23.50;42.30;;;;;;5095564;28;19916;-63
2021/06/13 12:56:39;;;;;;;;;;;23.60;41.30;;;;;;5089046;28;19920;-63
2021/06/13 12:59:05;;;;;;;;;;;23.50;41.30;;;;;;5088700;28;20439;-63
2021/06/13 13:01:30;;;;;;;;;;;23.30;41.90;;;;;;5075376;28;20008;-63
2021/06/13 13:03:58;;;;;;;;;;;23.00;41.70;;;;;;5071867;28;20376;-63
2021/06/13 13:06:24;;;;;;;;;;;22.70;41.90;;;;;;5089151;28;19916;-62
2021/06/13 13:08:50;;;;;;;;;;;22.40;42.30;;;;;;5094005;28;19916;-64
2021/06/13 13:11:40;;;;;;;;;;;22.20;42.90;;;;;;5092856;28;20364;-63
2021/06/13 13:14:07;;;;;;;;;;;21.90;43.20;;;;;;5092725;28;19920;-63
2021/06/13 13:16:34;;;;;;;;;;;21.90;43.90;;;;;;5076394;28;19916;-65
2021/06/13 13:19:02;;;;;;;;;;;22.10;44.10;;;;;;5093101;28;20326;-63
2021/06/13 13:21:33;;;;;;;;;;;22.20;43.80;;;;;;5076657;28;19916;-63
2021/06/13 13:23:59;;;;;;;;;;;22.30;43.90;;;;;;5089162;28;19920;-62
2021/06/13 13:26:25;;;;;;;;;;;22.20;43.60;;;;;;5087308;28;19928;-63
2021/06/13 13:28:51;;;;;;;;;;;22.10;44.00;;;;;;5074531;28;19916;-64
2021/06/13 13:31:17;;;;;;;;;;;22.00;44.70;;;;;;5071579;28;20391;-64
2021/06/13 13:33:44;;;;;;;;;;;22.20;44.60;;;;;;5071557;28;19948;-62
2021/06/13 13:36:11;;;;;;;;;;;22.20;44.30;;;;;;5077797;28;19917;-63
2021/06/13 13:38:44;;;;;;;;;;;22.20;44.50;;;;;;5091086;28;19924;-62
2021/06/13 13:41:12;;;;;;;;;;;22.00;44.30;;;;;;5083205;28;19963;-61
2021/06/13 13:43:38;;;;;;;;;;;21.90;44.70;;;;;;5072478;28;19920;-62
2021/06/13 13:46:04;;;;;;;;;;;21.90;44.50;;;;;;5072521;28;20301;-62
2021/06/13 13:48:30;;;;;;;;;;;21.80;44.80;;;;;;5072162;28;20372;-63
2021/06/13 13:51:00;;;;;;;;;;;21.80;45.10;;;;;;5071544;28;19970;-62
2021/06/13 13:53:28;;;;;;;;;;;21.80;45.00;;;;;;5071330;28;19925;-63
2021/06/13 13:55:55;;;;;;;;;;;21.90;45.20;;;;;;5072049;28;19923;-63
2021/06/13 13:58:22;;;;;;;;;;;21.90;45.30;;;;;;5071703;28;19920;-63
2021/06/13 14:00:53;;;;;;;;;;;22.00;45.30;;;;;;5071858;28;19917;-63
2021/06/13 14:03:18;;;;;;;;;;;21.80;45.20;;;;;;5070548;28;20011;-63
2021/06/13 14:05:44;;;;;;;;;;;21.80;45.40;;;;;;5071789;28;20050;-62
2021/06/13 14:08:09;;;;;;;;;;;21.90;45.90;;;;;;5054706;28;19912;-64
2021/06/13 14:10:35;;;;;;;;;;;22.00;45.30;;;;;;5071777;28;19956;-62
2021/06/13 14:13:00;;;;;;;;;;;21.90;45.30;;;;;;5072343;28;19932;-62
2021/06/13 14:15:26;;;;;;;;;;;21.90;45.50;;;;;;5072563;28;19917;-62
2021/06/13 14:17:52;;;;;;;;;;;21.80;45.20;;;;;;5071562;28;20011;-62
2021/06/13 14:20:17;;;;;;;;;;;21.60;45.80;;;;;;5071579;28;19923;-62
2021/06/13 14:22:43;;;;;;;;;;;21.60;45.90;;;;;;5053812;28;20011;-63
2021/06/13 14:25:09;;;;;;;;;;;21.50;45.60;;;;;;5072091;28;19920;-62